Data for 07/04/2007

Time Sea-Level Adjusted Pressure Absolute Pressure Temperature Relative Humidity Dew Point   
(mb) (inHg) (mb) (inHg) (C) (F) (%) (C) (F)
00:05 1025 30.27 854 25.22 18 64.3 49 7.3 45.1
00:10 1025 30.27 854 25.22 17.6 63.7 50 7.1 44.7
00:15 1025 30.27 854 25.22 17.3 63.2 50 6.9 44.5
00:20 1025 30.27 854 25.22 17.3 63.2 53 7.8 46
00:25 1025 30.27 854 25.22 17.3 63.1 50 6.9 44.4
00:30 1025 30.27 854 25.22 17.4 63.2 49 6.7 44
00:35 1025 30.27 854 25.22 17.5 63.4 48 6.3 43.4
00:40 1025 30.27 854 25.22 17.3 63.1 50 6.9 44.4
00:45 1025 30.27 854 25.22 17.1 62.8 50 6.6 43.8
00:50 1025 30.27 854 25.22 17.1 62.9 50 6.6 43.9
00:55 1025 30.27 854 25.22 16.9 62.5 50 6.6 43.9
01:00 1025 30.27 854 25.22 16.9 62.4 50 6.5 43.7
01:05 1025 30.27 854 25.22 16.9 62.3 50 6.6 43.8
01:10 1025 30.27 854 25.22 16.8 62.2 50 6.4 43.4
01:15 1025 30.27 855 25.25 16.9 62.5 48 6 42.9
01:20 1025 30.27 855 25.25 17.4 63.4 46 5.8 42.5
01:25 1025 30.27 855 25.25 17.6 63.7 46 5.9 42.6
01:30 1025 30.27 855 25.25 17.5 63.5 46 6 42.8
01:35 1025 30.27 855 25.25 17.4 63.3 47 6 42.7
01:40 1025 30.27 855 25.25 17.5 63.4 46 5.8 42.4
01:45 1025 30.27 854 25.22 17.5 63.4 47 6.1 42.9
01:50 1025 30.27 855 25.25 17.2 63 48 6.1 43
01:55 1025 30.27 855 25.25 16.9 62.4 49 6.3 43.3
02:00 1025 30.27 855 25.25 16.7 62 50 6.3 43.3
02:05 1025 30.27 855 25.25 16.5 61.7 50 6.1 43
02:10 1025 30.27 855 25.25 16.3 61.3 51 6.3 43.3
02:15 1025 30.27 855 25.25 16.2 61.1 51 6.1 43
02:20 1025 30.27 854 25.22 16.2 61.1 52 6.4 43.5
02:25 1025 30.27 854 25.22 16.1 61 50 5.9 42.6
02:30 1025 30.27 854 25.22 16.3 61.3 47 5.2 41.3
02:35 1025 30.27 854 25.22 17 62.7 45 5.1 41.2
02:40 1025 30.27 854 25.22 17 62.5 47 5.6 42.1
02:45 1025 30.27 854 25.22 16.6 62 48 5.8 42.4
02:50 1025 30.27 854 25.22 16.4 61.4 48 5.5 41.9
02:55 1025 30.27 854 25.22 16.5 61.7 49 5.8 42.4
03:00 1025 30.27 854 25.22 16.5 61.7 47 5.2 41.4
03:05 1025 30.27 854 25.22 16.5 61.8 48 5.5 41.9
03:10 1025 30.27 854 25.22 16.2 61.1 50 5.8 42.4
03:15 1025 30.27 854 25.22 15.9 60.6 50 5.6 42
03:20 1025 30.27 854 25.22 15.9 60.6 50 5.5 41.9
03:25 1025 30.27 854 25.22 15.9 60.7 48 5.2 41.3
03:30 1025 30.27 854 25.22 16.3 61.4 47 5 41
03:35 1025 30.27 854 25.22 16.4 61.5 47 5.1 41.1
03:40 1025 30.27 854 25.22 16.3 61.4 48 5.3 41.5
03:45 1025 30.27 854 25.22 16 60.8 49 5.5 41.9
03:50 1025 30.27 854 25.22 15.7 60.2 50 5.4 41.7
03:55 1025 30.27 854 25.22 15.5 59.8 54 6.1 43.1
04:00 1025 30.27 854 25.22 15 59 52 5.4 41.8
04:05 1025 30.27 854 25.22 14.7 58.5 54 5.5 41.9
04:10 1025 30.27 854 25.22 14.8 58.6 52 5.1 41.2
04:15 1025 30.27 854 25.22 15 59 51 4.9 40.9
04:20 1025 30.27 854 25.22 15.4 59.6 49 4.7 40.5
04:25 1025 30.27 854 25.22 15.7 60.2 48 4.9 40.8
04:30 1025 30.27 854 25.22 15.7 60.2 49 5 41
04:35 1025 30.27 854 25.22 15.6 60.1 48 4.8 40.7
04:40 1025 30.27 854 25.22 15.7 60.3 47 4.7 40.4
04:45 1025 30.27 855 25.25 16.2 61.1 44 4.1 39.4
04:50 1025 30.27 855 25.25 16.5 61.8 45 4.5 40.1
04:55 1025 30.27 855 25.25 16.2 61.1 47 4.9 40.9
05:00 1025 30.27 855 25.25 15.9 60.6 47 4.8 40.7
05:05 1025 30.27 855 25.25 15.9 60.6 48 4.9 40.8
05:10 1026 30.3 855 25.25 15.8 60.4 46 4.2 39.6
05:15 1026 30.3 855 25.25 16.1 60.9 48 5.1 41.2
05:20 1025 30.27 855 25.25 15.7 60.2 48 4.7 40.4
05:25 1026 30.3 855 25.25 15.4 59.7 49 4.9 40.8
05:30 1026 30.3 855 25.25 15.3 59.5 49 4.7 40.5
05:35 1026 30.3 855 25.25 15.2 59.3 50 4.8 40.6
05:40 1026 30.3 855 25.25 15.2 59.3 51 5.1 41.2
05:45 1026 30.3 855 25.25 14.5 58.1 53 5.1 41.3
05:50 1026 30.3 855 25.25 14.5 58.2 51 4.6 40.4
05:55 1026 30.3 855 25.25 14.9 58.9 49 4.4 40
06:00 1026 30.3 855 25.25 15.2 59.4 47 4.1 39.5
06:05 1026 30.3 855 25.25 15.2 59.3 50 4.9 40.9
06:10 1026 30.3 855 25.25 14.6 58.2 52 5 41
06:15 1026 30.3 855 25.25 14.3 57.7 52 4.7 40.4
06:20 1026 30.3 855 25.25 14.7 58.5 50 4.5 40.1
06:25 1026 30.3 855 25.25 14.7 58.4 51 4.8 40.6
06:30 1026 30.3 855 25.25 14.9 58.7 49 4.4 40
06:35 1026 30.3 855 25.25 15.2 59.4 49 4.6 40.3
06:40 1026 30.3 855 25.25 15.3 59.6 49 4.8 40.6
06:45 1026 30.3 856 25.28 15.6 60 49 5 41
06:50 1026 30.3 856 25.28 15.7 60.3 48 4.9 40.8
06:55 1026 30.3 856 25.28 15.9 60.6 49 5.2 41.4
07:00 1026 30.3 855 25.25 15.8 60.5 51 5.7 42.2
07:05 1026 30.3 855 25.25 15.6 60 50 5.4 41.8
07:10 1026 30.3 855 25.25 15.7 60.3 50 5.3 41.6
07:15 1026 30.3 856 25.28 16.2 61.2 48 5.4 41.7
07:20 1026 30.3 856 25.28 16.4 61.5 49 5.7 42.2
07:25 1026 30.3 856 25.28 16.7 62 48 5.8 42.4
07:30 1026 30.3 856 25.28 16.9 62.5 47 5.7 42.2
07:35 1026 30.3 856 25.28 17.2 62.9 48 6.3 43.3
07:40 1026 30.3 856 25.28 17.5 63.4 47 6.1 43
07:45 1026 30.3 856 25.28 17.8 64.1 44 5.5 41.8
07:50 1026 30.3 856 25.28 18.4 65.1 44 6.1 43
07:55 1026 30.3 856 25.28 18.9 66 43 6.1 43.1
08:00 1026 30.3 856 25.28 19.2 66.6 41 5.7 42.3
08:05 1026 30.3 856 25.28 19.6 67.3 39 5.5 41.9
08:10 1026 30.3 856 25.28 20 68 40 6.2 43.2
08:15 1026 30.3 856 25.28 19.7 67.4 41 6.3 43.4
08:20 1026 30.3 856 25.28 19.9 67.9 41 6.6 43.8
08:25 1026 30.3 856 25.28 20.4 68.7 42 7.1 44.8
08:30 1026 30.3 856 25.28 20.7 69.3 40 6.7 44.1
08:35 1026 30.3 856 25.28 21 69.9 40 7.1 44.7
08:40 1026 30.3 856 25.28 21.2 70.1 39 6.9 44.4
08:45 1027 30.33 856 25.28 21 69.8 41 7.3 45.1
08:50 1026 30.3 856 25.28 21 69.7 40 7.2 44.9
08:55 1027 30.33 856 25.28 21.2 70.1 40 7.1 44.7
09:00 1027 30.33 856 25.28 21 69.7 40 7.1 44.7
09:05 1027 30.33 856 25.28 20.8 69.5 38 6.1 43
09:10 1027 30.33 856 25.28 20.9 69.6 41 7.4 45.4
09:15 1026 30.3 856 25.28 21.2 70.1 40 7.3 45.1
09:20 1026 30.3 856 25.28 21.7 71 37 6.4 43.4
09:25 1026 30.3 856 25.28 22 71.6 35 6.1 43
09:30 1026 30.3 856 25.28 22.7 72.8 34 6.3 43.3
09:35 1026 30.3 856 25.28 23.5 74.2 33 6.4 43.6
09:40 1026 30.3 856 25.28 23 73.4 35 7 44.5
09:45 1026 30.3 856 25.28 22.9 73.1 35 6.6 43.9
09:50 1026 30.3 856 25.28 23.2 73.8 34 6.8 44.3
09:55 1026 30.3 856 25.28 24 75.2 33 7.1 44.8
10:00 1026 30.3 855 25.25 24.6 76.3 32 7.1 44.7
10:05 1026 30.3 855 25.25 25.2 77.3 32 7.7 45.9
10:10 1026 30.3 856 25.28 25.2 77.3 32 7.7 45.8
10:15 1026 30.3 855 25.25 24.8 76.7 33 7.5 45.6
10:20 1026 30.3 855 25.25 25.3 77.5 29 6.3 43.4
10:25 1026 30.3 855 25.25 25 77 31 7 44.7
10:30 1026 30.3 855 25.25 25.2 77.3 31 7.2 44.9
10:35 1026 30.3 855 25.25 25.2 77.3 32 7.5 45.6
10:40 1026 30.3 855 25.25 25.5 77.9 31 7.2 44.9
10:45 1026 30.3 855 25.25 26.1 79 30 7.6 45.7
10:50 1026 30.3 855 25.25 25.5 77.9 30 6.8 44.2
10:55 1026 30.3 855 25.25 25.8 78.4 30 6.9 44.5
11:00 1026 30.3 855 25.25 25.5 77.9 31 7.4 45.3
11:05 1026 30.3 855 25.25 25.8 78.5 28 6.4 43.6
11:10 1026 30.3 855 25.25 25.6 78.1 29 6.4 43.6
11:15 1026 30.3 855 25.25 26.4 79.5 27 5.9 42.6
11:20 1026 30.3 855 25.25 27.2 81 26 6.2 43.2
11:25 1026 30.3 855 25.25 27.4 81.3 26 6.4 43.5
11:30 1026 30.3 855 25.25 28 82.4 26 6.9 44.3
11:35 1026 30.3 855 25.25 27.7 81.8 27 7.2 44.9
11:40 1026 30.3 855 25.25 27.2 81 25 5.8 42.4
11:45 1026 30.3 855 25.25 27.4 81.2 24 5.5 41.9
11:50 1026 30.3 855 25.25 27.4 81.2 25 6.1 42.9
11:55 1026 30.3 855 25.25 27.7 81.8 25 6.4 43.5
12:00 1026 30.3 855 25.25 27.9 82.1 26 6.9 44.4
12:05 1026 30.3 855 25.25 28.2 82.8 25 6.4 43.4
12:10 1026 30.3 855 25.25 28.1 82.6 23 5.3 41.6
12:15 1026 30.3 855 25.25 28.6 83.4 21 4.7 40.4
12:20 1026 30.3 855 25.25 28.1 82.5 22 4.8 40.6
12:25 1026 30.3 855 25.25 28.4 83.1 23 5.4 41.7
12:30 1026 30.3 855 25.25 28.4 83.1 22 4.7 40.4
12:35 1026 30.3 855 25.25 28.1 82.5 23 5.6 42.1
12:40 1026 30.3 855 25.25 27.6 81.7 24 5.5 41.9
12:45 1026 30.3 855 25.25 28 82.4 24 5.9 42.5
12:50 1026 30.3 855 25.25 28.9 83.9 22 5 41
12:55 1026 30.3 855 25.25 28.5 83.3 23 5.5 41.9
13:00 1025 30.27 855 25.25 27.7 81.9 22 4.6 40.3
13:05 1025 30.27 855 25.25 28.1 82.5 22 4.6 40.3
13:10 1025 30.27 855 25.25 28.3 83 21 4.3 39.8
13:15 1025 30.27 855 25.25 29.1 84.5 20 4.1 39.4
13:20 1025 30.27 854 25.22 28.9 84 19 3.6 38.5
13:25 1025 30.27 854 25.22 29.7 85.4 19 4.2 39.6
13:30 1025 30.27 854 25.22 29.4 85 19 3.7 38.6
13:35 1025 30.27 854 25.22 29.5 85.1 18 2.9 37.2
13:40 1025 30.27 854 25.22 30 86.1 16 1.8 35.2
13:45 1025 30.27 854 25.22 30.1 86.1 16 1.9 35.4
13:50 1025 30.27 854 25.22 30.3 86.6 16 1.9 35.4
13:55 1025 30.27 854 25.22 30.4 86.7 16 2.2 35.9
14:00 1025 30.27 854 25.22 30.6 87.1 16 2.1 35.8
14:05 1025 30.27 854 25.22 31 87.9 16 2.6 36.8
14:10 1025 30.27 854 25.22 30.7 87.2 16 2.7 36.9
14:15 1025 30.27 854 25.22 30.4 86.8 18 3.7 38.6
14:20 1025 30.27 854 25.22 30.5 86.9 17 3.4 38
14:25 1025 30.27 854 25.22 30.8 87.5 19 4.7 40.4
14:30 1025 30.27 854 25.22 30.7 87.3 17 3.2 37.7
14:35 1025 30.27 854 25.22 31.4 88.6 17 3.9 39
14:40 1025 30.27 854 25.22 31.5 88.8 17 4 39.1
14:45 1025 30.27 854 25.22 31.7 89 17 4.4 40
14:50 1025 30.27 854 25.22 31.6 88.9 18 4.6 40.3
14:55 1025 30.27 854 25.22 31.6 89 18 5.1 41.2
15:00 1025 30.27 854 25.22 31.6 88.9 18 4.7 40.5
15:05 1024 30.24 854 25.22 32 89.5 17 4.3 39.8
15:10 1024 30.24 854 25.22 30.4 86.7 20 4.9 40.9
15:15 1024 30.24 854 25.22 30.5 87 20 5 41.1
15:20 1024 30.24 854 25.22 30.9 87.7 19 5.1 41.3
15:25 1024 30.24 854 25.22 31.2 88.1 19 5.1 41.2
15:30 1024 30.24 853 25.19 31.4 88.5 19 5.3 41.5
15:35 1024 30.24 853 25.19 32.1 89.8 17 4.5 40.1
15:40 1024 30.24 853 25.19 32.4 90.2 19 6.1 43
15:45 1024 30.24 853 25.19 32.2 90 18 5.3 41.6
15:50 1024 30.24 853 25.19 31.8 89.3 20 6.6 43.8
15:55 1024 30.24 853 25.19 31.9 89.4 18 5.3 41.5
16:00 1024 30.24 853 25.19 32.1 89.7 19 5.8 42.5
16:05 1024 30.24 853 25.19 31.6 88.8 18 5 41.1
16:10 1024 30.24 853 25.19 31.4 88.6 19 5.5 42
16:15 1024 30.24 853 25.19 32.1 89.7 20 6.7 44.1
16:20 1024 30.24 853 25.19 32.5 90.4 18 5.6 42
16:25 1024 30.24 853 25.19 32.8 91 19 6.3 43.3
16:30 1024 30.24 853 25.19 32.6 90.7 20 6.9 44.4
16:35 1024 30.24 853 25.19 32.4 90.4 20 7 44.6
16:40 1024 30.24 853 25.19 32.4 90.4 19 6.2 43.1
16:45 1024 30.24 853 25.19 32.2 90 19 6.1 43
16:50 1024 30.24 853 25.19 32 89.7 20 6.3 43.4
16:55 1024 30.24 853 25.19 32.1 89.7 20 6.4 43.6
17:00 1024 30.24 853 25.19 32.5 90.4 17 5.1 41.1
17:05 1023 30.21 853 25.19 32.2 90 18 5.3 41.6
17:10 1023 30.21 853 25.19 32.8 91 18 5.8 42.5
17:15 1023 30.21 853 25.19 32.7 90.8 17 4.9 40.8
17:20 1023 30.21 853 25.19 32.9 91.2 15 3.6 38.5
17:25 1023 30.21 853 25.19 33.2 91.7 16 4.1 39.3
17:30 1023 30.21 853 25.19 32.7 90.9 16 4 39.2
17:35 1023 30.21 853 25.19 31.9 89.5 16 3.4 38.1
17:40 1023 30.21 853 25.19 31.7 89 15 2.6 36.6
17:45 1023 30.21 852 25.16 31.4 88.4 16 2.5 36.5
17:50 1023 30.21 852 25.16 31.8 89.3 15 2.7 36.8
17:55 1023 30.21 852 25.16 32.3 90.2 16 3.4 38.1
18:00 1023 30.21 853 25.19 32.6 90.6 15 3 37.4
18:05 1023 30.21 852 25.16 32.9 91.2 16 4 39.2
18:10 1023 30.21 852 25.16 32.2 89.9 16 3.8 38.9
18:15 1023 30.21 852 25.16 32 89.6 17 4.4 39.9
18:20 1023 30.21 852 25.16 32.4 90.4 15 3.2 37.8
18:25 1023 30.21 852 25.16 32.5 90.6 16 4 39.1
18:30 1023 30.21 852 25.16 32 89.5 17 4.4 39.9
18:35 1023 30.21 852 25.16 31.9 89.5 16 3.2 37.8
18:40 1023 30.21 852 25.16 32.1 89.7 16 3.1 37.5
18:45 1023 30.21 852 25.16 32 89.7 17 4 39.2
18:50 1023 30.21 852 25.16 32.3 90.1 15 3.1 37.6
18:55 1023 30.21 852 25.16 32.1 89.8 17 4.4 39.9
19:00 1023 30.21 852 25.16 32 89.7 16 3.4 38.1
19:05 1023 30.21 852 25.16 32 89.5 17 4.6 40.4
19:10 1023 30.21 852 25.16 32.1 89.8 19 5.7 42.2
19:15 1023 30.21 852 25.16 32 89.5 20 6.4 43.6
19:20 1023 30.21 852 25.16 31.8 89.2 19 5.6 42.1
19:25 1023 30.21 852 25.16 31.6 88.9 19 5.4 41.8
19:30 1023 30.21 852 25.16 31.4 88.4 20 6.1 43
19:35 1023 30.21 852 25.16 30.8 87.5 21 6.5 43.7
19:40 1023 30.21 852 25.16 30.1 86.2 23 6.9 44.4
19:45 1023 30.21 852 25.16 30 86 21 5.9 42.6
19:50 1023 30.21 852 25.16 30.1 86.2 23 7.3 45.2
19:55 1023 30.21 852 25.16 29.7 85.4 26 8.2 46.8
20:00 1023 30.21 852 25.16 29.4 85 26 8.1 46.6
20:05 1023 30.21 852 25.16 29.1 84.5 26 8.2 46.8
20:10 1023 30.21 852 25.16 28.9 84 27 8.4 47.1
20:15 1023 30.21 852 25.16 28.8 83.8 28 8.8 47.8
20:20 1023 30.21 853 25.19 28.6 83.5 32 10.6 51.1
20:25 1023 30.21 853 25.19 28.4 83.2 31 9.9 49.8
20:30 1023 30.21 853 25.19 28.3 83 29 8.8 47.9
20:35 1023 30.21 853 25.19 28.3 82.9 27 7.8 46.1
20:40 1023 30.21 853 25.19 28.3 83 28 8.5 47.3
20:45 1024 30.24 853 25.19 28.1 82.6 26 7.3 45.1
20:50 1024 30.24 853 25.19 27.5 81.5 27 7.4 45.3
20:55 1024 30.24 853 25.19 27.1 80.8 28 7.3 45.2
21:00 1024 30.24 853 25.19 26.9 80.4 28 7.4 45.3
21:05 1024 30.24 853 25.19 26.7 80.1 29 7.3 45.1
21:10 1024 30.24 853 25.19 26.4 79.6 29 7.1 44.8
21:15 1024 30.24 853 25.19 26.2 79.1 30 7.5 45.5
21:20 1024 30.24 853 25.19 25.8 78.4 31 7.5 45.6
21:25 1024 30.24 853 25.19 25.5 77.9 31 7.4 45.3
21:30 1024 30.24 853 25.19 25.4 77.8 31 7.2 44.9
21:35 1024 30.24 853 25.19 25.4 77.7 31 7.3 45.1
21:40 1024 30.24 853 25.19 25.3 77.5 31 7.2 45
21:45 1024 30.24 853 25.19 25.2 77.3 31 7.2 45
21:50 1024 30.24 854 25.22 25.1 77.1 31 7.1 44.8
21:55 1024 30.24 854 25.22 25.1 77.1 32 7.2 45
22:00 1024 30.24 854 25.22 25 76.9 32 7.1 44.9
22:05 1025 30.27 854 25.22 24.8 76.6 32 7.2 44.9
22:10 1025 30.27 854 25.22 24.7 76.5 32 7.2 44.9
22:15 1025 30.27 854 25.22 24.8 76.6 31 6.7 44.1
22:20 1025 30.27 854 25.22 24.9 76.9 31 6.8 44.2
22:25 1025 30.27 854 25.22 24.7 76.5 32 7.1 44.8
22:30 1025 30.27 854 25.22 24.4 75.9 32 7 44.6
22:35 1025 30.27 854 25.22 24.4 75.8 32 6.8 44.2
22:40 1025 30.27 854 25.22 24.6 76.2 32 6.9 44.4
22:45 1025 30.27 854 25.22 24.4 76 32 6.9 44.5
22:50 1025 30.27 854 25.22 24.3 75.7 33 7 44.7
22:55 1025 30.27 854 25.22 24.2 75.5 33 7 44.6
23:00 1025 30.27 854 25.22 24.1 75.4 33 7 44.6
23:05 1025 30.27 854 25.22 24.1 75.4 33 6.9 44.5
23:10 1025 30.27 854 25.22 24.2 75.5 33 7.3 45.1
23:15 1025 30.27 854 25.22 24.1 75.4 33 7 44.7
23:20 1025 30.27 854 25.22 23.9 75.1 34 7.2 44.9
23:25 1024 30.24 854 25.22 23.9 75.1 33 7 44.6
23:30 1024 30.24 854 25.22 24.1 75.3 33 7.1 44.8
23:35 1024 30.24 854 25.22 23.9 75 34 7.1 44.8
23:40 1025 30.27 854 25.22 23.7 74.6 34 7.2 45
23:45 1025 30.27 854 25.22 23.6 74.5 34 7 44.6
23:50 1025 30.27 854 25.22 23.6 74.4 34 7.1 44.8
23:55 1025 30.27 854 25.22 23.4 74.2 34 7 44.6
24:00 1025 30.27 854 25.22 23.4 74.1 34 6.9 44.4